createdAt,value
2019-02-07T00:03:50.920Z,2.92
2019-02-07T00:09:45.902Z,2.67
2019-02-07T00:15:41.002Z,2.63
2019-02-07T00:21:35.973Z,2.43
2019-02-07T00:27:30.946Z,2.9
2019-02-07T00:33:25.982Z,2.69
2019-02-07T00:39:20.944Z,2.38
2019-02-07T00:45:15.938Z,2.55
2019-02-07T00:51:10.949Z,2.66
2019-02-07T00:57:05.969Z,2.66
2019-02-07T01:03:00.973Z,2.42
2019-02-07T01:08:56.021Z,2.64
2019-02-07T01:15:01.410Z,2.78
2019-02-07T01:20:45.967Z,2.61
2019-02-07T01:26:40.977Z,2.47
2019-02-07T01:32:35.965Z,2.93
2019-02-07T01:38:31.006Z,2.79
2019-02-07T01:44:25.972Z,2.51
2019-02-07T01:50:20.983Z,2.67
2019-02-07T01:56:16.023Z,2.98
2019-02-07T02:02:11.010Z,2.69
2019-02-07T02:08:06.054Z,2.67
2019-02-07T02:14:01.009Z,2.2
2019-02-07T02:19:56.011Z,2.58
2019-02-07T02:25:51.032Z,2.69
2019-02-07T02:31:46.025Z,2.67
2019-02-07T02:37:41.014Z,2.69
2019-02-07T02:43:36.045Z,2.6
2019-02-07T02:49:31.037Z,2.33
2019-02-07T02:55:26.033Z,2.57
2019-02-07T03:01:21.050Z,2.73
2019-02-07T03:07:16.078Z,2.88
2019-02-07T03:13:11.053Z,2.48
2019-02-07T03:19:06.071Z,2.68
2019-02-07T03:25:01.072Z,2.8
2019-02-07T03:30:56.103Z,2.26
2019-02-07T03:36:51.121Z,2.53
2019-02-07T03:42:46.075Z,2.56
2019-02-07T03:48:41.094Z,2.52
2019-02-07T03:54:36.097Z,2.28
2019-02-07T04:00:31.125Z,2.61
2019-02-07T04:06:26.148Z,2.7
2019-02-07T04:12:21.103Z,2.54
2019-02-07T04:18:16.139Z,2.64
2019-02-07T04:24:11.145Z,3.22
2019-02-07T04:30:06.159Z,2.93
2019-02-07T04:36:01.174Z,2.55
2019-02-07T04:41:56.211Z,2.62
2019-02-07T04:47:51.150Z,3.14
2019-02-07T04:53:46.153Z,2.42
2019-02-07T04:59:41.191Z,3.12
2019-02-07T05:05:36.166Z,2.95
2019-02-07T05:11:31.146Z,3.1
2019-02-07T05:17:26.167Z,3.09
2019-02-07T05:23:21.200Z,3.04
2019-02-07T05:29:16.170Z,3.58
2019-02-07T05:35:11.206Z,3.3
2019-02-07T05:41:06.232Z,3.53
2019-02-07T05:47:01.175Z,3.24
2019-02-07T05:52:56.182Z,3.05
2019-02-07T05:58:51.182Z,3.01
2019-02-07T06:04:46.197Z,2.97
2019-02-07T06:10:41.216Z,3.49
2019-02-07T06:16:36.220Z,3.01
2019-02-07T06:22:31.230Z,4.43
2019-02-07T06:28:26.240Z,2.83
2019-02-07T06:34:28.550Z,3.09
2019-02-07T06:40:16.244Z,3.12
2019-02-07T06:46:11.235Z,4.12
2019-02-07T06:52:06.267Z,4.71
2019-02-07T06:58:01.316Z,4.3
2019-02-07T07:03:57.714Z,3.12
2019-02-07T07:09:51.251Z,3.79
2019-02-07T07:15:46.263Z,4.17
2019-02-07T07:21:41.286Z,4.37
2019-02-07T07:27:36.267Z,4.72
2019-02-07T07:33:31.268Z,4
2019-02-07T07:39:26.440Z,4.61
2019-02-07T07:45:21.283Z,4.57
2019-02-07T07:51:16.306Z,6.24
2019-02-07T07:57:11.321Z,4.98
2019-02-07T08:03:06.293Z,5.66
2019-02-07T08:09:01.342Z,6.15
2019-02-07T08:14:56.354Z,5.81
2019-02-07T08:20:51.326Z,5.04
2019-02-07T08:26:46.323Z,4.9
2019-02-07T08:32:41.317Z,6.61
2019-02-07T08:38:36.329Z,6.89
2019-02-07T08:44:31.345Z,5.46
2019-02-07T08:50:26.361Z,6.65
2019-02-07T08:56:21.357Z,7.79
2019-02-07T09:02:16.340Z,8.32
2019-02-07T09:08:11.403Z,7.54
2019-02-07T09:14:06.354Z,8.32
2019-02-07T09:20:01.370Z,6.88
2019-02-07T09:25:56.372Z,7.58
2019-02-07T09:31:51.420Z,8.5
2019-02-07T09:37:46.478Z,7.79
2019-02-07T09:43:41.451Z,8.03
2019-02-07T09:49:36.416Z,8.39
2019-02-07T09:55:31.395Z,7.9
2019-02-07T10:01:26.417Z,8.72
2019-02-07T10:07:21.417Z,8.35
2019-02-07T10:13:16.429Z,8.35
2019-02-07T10:19:11.416Z,8.58
2019-02-07T10:25:06.488Z,6.8
2019-02-07T10:31:01.418Z,9.06
2019-02-07T10:36:56.448Z,8.68
2019-02-07T10:42:51.456Z,9.06
2019-02-07T10:48:46.446Z,9.45
2019-02-07T10:54:41.484Z,9.36
2019-02-07T11:00:36.451Z,8.64
2019-02-07T11:06:31.475Z,9.18
2019-02-07T11:12:26.461Z,7.84
2019-02-07T11:18:21.466Z,7.89
2019-02-07T11:24:16.469Z,8.22
2019-02-07T11:30:11.483Z,7.14
2019-02-07T11:36:06.549Z,7.87
2019-02-07T11:42:01.491Z,6.87
2019-02-07T11:47:56.506Z,7.66
2019-02-07T11:53:51.500Z,6.96
2019-02-07T11:59:46.516Z,7.32
2019-02-07T12:05:41.501Z,7.84
2019-02-07T12:11:36.527Z,7.23
2019-02-07T12:17:31.528Z,7.63
2019-02-07T12:23:26.523Z,6.72
2019-02-07T12:29:21.524Z,7.47
2019-02-07T12:35:16.513Z,7.5
2019-02-07T12:41:11.531Z,7.47
2019-02-07T12:47:06.529Z,7.93
2019-02-07T12:53:01.560Z,6.58
2019-02-07T12:58:56.556Z,7.49
2019-02-07T13:04:51.561Z,7.41
2019-02-07T13:10:46.601Z,6.03
2019-02-07T13:16:41.555Z,5.03
2019-02-07T13:22:36.625Z,6.45
2019-02-07T13:28:31.626Z,5.66
2019-02-07T13:34:26.614Z,5.73
2019-02-07T13:40:21.600Z,5.33
2019-02-07T13:46:16.585Z,5.8
2019-02-07T13:52:11.626Z,5.48
2019-02-07T13:58:06.606Z,5.41
2019-02-07T14:04:01.617Z,6.26
2019-02-07T14:09:56.618Z,5.69
2019-02-07T14:15:51.658Z,5.74
2019-02-07T14:21:46.648Z,6.27
2019-02-07T14:27:41.681Z,6.64
2019-02-07T14:33:36.651Z,6.08
2019-02-07T14:39:31.671Z,6.7
2019-02-07T14:45:26.647Z,5.78
2019-02-07T14:51:21.696Z,5.29
2019-02-07T14:57:16.725Z,4.94
2019-02-07T15:03:11.686Z,6.03
2019-02-07T15:09:06.678Z,6.32
2019-02-07T15:15:01.673Z,6.11
2019-02-07T15:20:56.695Z,6.49
2019-02-07T15:26:51.700Z,6.02
2019-02-07T15:32:46.714Z,7.17
2019-02-07T15:38:41.709Z,6.3
2019-02-07T15:44:36.713Z,6.08
2019-02-07T15:50:37.491Z,6.38
2019-02-07T15:56:26.708Z,7.59
2019-02-07T16:02:21.798Z,6.7
2019-02-07T16:08:16.715Z,7.82
2019-02-07T16:14:11.743Z,7.65
2019-02-07T16:20:06.751Z,7.47
2019-02-07T16:26:01.808Z,8.44
2019-02-07T16:31:56.811Z,7.88
2019-02-07T16:37:51.756Z,8.16
2019-02-07T16:43:46.782Z,7.95
2019-02-07T16:49:41.764Z,7.7
2019-02-07T16:55:36.787Z,7.25
2019-02-07T17:01:31.779Z,7.13
2019-02-07T17:07:26.810Z,8.44
2019-02-07T17:13:21.783Z,10.34
2019-02-07T17:19:16.828Z,9.27
2019-02-07T17:25:11.866Z,8.64
2019-02-07T17:31:06.811Z,7.72
2019-02-07T17:37:01.809Z,8.57
2019-02-07T17:42:56.812Z,9.48
2019-02-07T17:48:51.846Z,9.34
2019-02-07T17:54:46.845Z,11.04
2019-02-07T18:00:41.912Z,12.37
2019-02-07T18:06:36.845Z,13.14
2019-02-07T18:12:31.846Z,13.53
2019-02-07T18:18:26.856Z,11.79
2019-02-07T18:24:21.843Z,11.85
2019-02-07T18:30:16.899Z,10.78
2019-02-07T18:36:11.860Z,12.42
2019-02-07T18:42:06.859Z,11.53
2019-02-07T18:48:01.889Z,10.9
2019-02-07T18:53:56.879Z,10.94
2019-02-07T18:59:51.887Z,12.36
2019-02-07T19:05:46.900Z,14.53
2019-02-07T19:11:41.895Z,16.49
2019-02-07T19:17:36.921Z,16.94
2019-02-07T19:23:31.888Z,16.28
2019-02-07T19:29:26.891Z,17.6
2019-02-07T19:35:21.919Z,17.19
2019-02-07T19:41:16.951Z,20.12
2019-02-07T19:47:11.922Z,17.74
2019-02-07T19:53:06.930Z,18.03
2019-02-07T19:59:01.988Z,17.65
2019-02-07T20:04:56.943Z,18.44
2019-02-07T20:10:51.941Z,16.68
2019-02-07T20:16:46.989Z,19.37
2019-02-07T20:22:41.938Z,16.67
2019-02-07T20:28:36.947Z,16.12
2019-02-07T20:34:31.973Z,16.54
2019-02-07T20:40:26.986Z,17.23
2019-02-07T20:46:21.967Z,17.47
2019-02-07T20:52:16.982Z,15.97
2019-02-07T20:58:11.990Z,16.02
2019-02-07T21:04:06.974Z,15.2
2019-02-07T21:10:02.021Z,16.44
2019-02-07T21:15:56.984Z,16.16
2019-02-07T21:21:52.024Z,15.67
2019-02-07T21:27:47.056Z,15.33
2019-02-07T21:33:42.019Z,17.64
2019-02-07T21:39:37.043Z,15.12
2019-02-07T21:45:32.034Z,14.14
2019-02-07T21:51:27.024Z,14.48
2019-02-07T21:57:22.045Z,13.75
2019-02-07T22:03:17.050Z,15.1
2019-02-07T22:09:12.044Z,14.38
2019-02-07T22:15:07.067Z,13.26
2019-02-07T22:21:02.036Z,13.6
2019-02-07T22:26:57.058Z,13.07
2019-02-07T22:32:52.110Z,14.08
2019-02-07T22:38:47.081Z,14.06
2019-02-07T22:44:42.099Z,12.93
2019-02-07T22:50:37.079Z,14.74
2019-02-07T22:56:32.084Z,14.39
2019-02-07T23:02:27.110Z,13.54
2019-02-07T23:08:22.100Z,14.45
2019-02-07T23:14:17.146Z,13.31
2019-02-07T23:20:12.134Z,13.25
2019-02-07T23:26:07.111Z,14.01
2019-02-07T23:32:03.386Z,13.06
2019-02-07T23:37:57.156Z,13.18
2019-02-07T23:43:52.123Z,12.51
2019-02-07T23:49:47.132Z,13.09
2019-02-07T23:55:42.142Z,12.95
